Time;durP1;ratioP1;P1;durP2;ratioP2;P2;SDS_P1;SDS_P2;PMS_P1;PMS_P2;Temp;Humidity;BMP_temperature;BMP_pressure;BME280_temperature;BME280_humidity;BME280_pressure;Samples;Min_cycle;Max_cycle;Signal;HPM_P1;HPM_P2
2023/05/28 00:01:46;;;;;;;6.97;4.77;;;21.90;98.70;;;;;;5095280;28;20515;-86
2023/05/28 00:04:12;;;;;;;10.30;4.70;;;21.90;98.60;;;;;;5095158;28;20196;-86
2023/05/28 00:06:37;;;;;;;7.20;4.37;;;21.80;98.80;;;;;;5093656;28;20449;-85
2023/05/28 00:09:03;;;;;;;11.13;5.57;;;21.80;98.90;;;;;;5093929;28;20664;-86
2023/05/28 00:11:29;;;;;;;6.33;4.40;;;21.80;99.10;;;;;;5093720;28;20241;-86
2023/05/28 00:13:55;;;;;;;8.30;4.77;;;21.80;98.60;;;;;;5094969;28;20184;-85
2023/05/28 00:16:21;;;;;;;5.90;4.00;;;21.70;98.60;;;;;;5099325;28;20261;-86
2023/05/28 00:18:47;;;;;;;7.67;5.13;;;21.70;98.60;;;;;;5097344;28;20821;-84
2023/05/28 00:21:12;;;;;;;9.57;4.90;;;21.60;98.60;;;;;;5097115;28;20444;-85
2023/05/28 00:23:38;;;;;;;7.00;4.43;;;21.60;98.80;;;;;;5096808;28;20420;-86
2023/05/28 00:26:03;;;;;;;9.10;4.23;;;21.60;99.10;;;;;;5114985;28;20199;-84
2023/05/28 00:28:29;;;;;;;5.27;3.93;;;21.60;99.10;;;;;;5096805;28;20314;-85
2023/05/28 00:30:55;;;;;;;8.37;4.43;;;21.60;99.00;;;;;;5114945;28;20515;-86
2023/05/28 00:33:20;;;;;;;4.80;3.63;;;21.60;98.90;;;;;;5096686;28;20660;-86
2023/05/28 00:35:46;;;;;;;6.60;4.40;;;21.50;98.80;;;;;;5096519;28;20192;-84
2023/05/28 00:38:12;;;;;;;5.73;3.90;;;21.50;98.70;;;;;;5096650;28;20218;-84
2023/05/28 00:40:43;;;;;;;10.97;4.73;;;21.50;98.80;;;;;;5113881;28;20271;-84
2023/05/28 00:43:09;;;;;;;6.03;4.47;;;21.50;98.60;;;;;;5114769;28;20164;-86
2023/05/28 00:45:35;;;;;;;7.80;4.47;;;21.40;98.60;;;;;;5114642;28;20423;-84
2023/05/28 00:48:01;;;;;;;6.17;4.57;;;21.40;98.70;;;;;;5096288;28;20260;-86
2023/05/28 00:50:28;;;;;;;6.87;4.50;;;21.40;98.60;;;;;;5096316;28;20196;-86
2023/05/28 00:52:54;;;;;;;8.70;4.17;;;21.30;98.80;;;;;;5096168;28;20419;-86
2023/05/28 00:55:20;;;;;;;9.00;5.43;;;21.30;98.60;;;;;;5114467;28;20439;-86
2023/05/28 00:57:47;;;;;;;6.23;4.40;;;21.30;98.60;;;;;;5096413;28;20476;-84
2023/05/28 01:00:13;;;;;;;7.60;4.50;;;21.20;98.60;;;;;;5114380;28;20440;-86
2023/05/28 01:02:39;;;;;;;4.90;4.07;;;21.20;98.50;;;;;;5096427;28;20822;-84
2023/05/28 01:05:06;;;;;;;5.77;4.03;;;21.20;98.60;;;;;;5114464;28;20444;-84
2023/05/28 01:07:32;;;;;;;9.53;4.70;;;21.20;98.60;;;;;;5114398;28;20824;-84
2023/05/28 01:09:58;;;;;;;7.30;4.33;;;21.20;98.50;;;;;;5096023;28;20451;-85
2023/05/28 01:12:25;;;;;;;8.70;4.47;;;21.20;98.50;;;;;;5096265;28;20917;-85
2023/05/28 01:14:52;;;;;;;9.93;4.53;;;21.10;98.20;;;;;;5114218;28;20570;-86
2023/05/28 01:17:18;;;;;;;7.90;4.40;;;21.00;98.60;;;;;;5114313;28;20455;-84
2023/05/28 01:19:47;;;;;;;7.67;4.30;;;21.00;98.30;;;;;;5095865;28;20431;-85
2023/05/28 01:22:16;;;;;;;9.50;5.33;;;20.90;98.70;;;;;;5095821;28;20518;-86
2023/05/28 01:24:44;;;;;;;8.30;4.43;;;20.80;98.80;;;;;;5095797;28;20416;-86
2023/05/28 01:27:11;;;;;;;7.87;4.30;;;20.80;98.60;;;;;;5114302;28;20553;-84
2023/05/28 01:29:37;;;;;;;8.90;4.80;;;20.80;98.60;;;;;;5113979;28;20404;-84
2023/05/28 01:32:03;;;;;;;6.00;4.57;;;20.80;98.60;;;;;;5114388;28;20412;-85
2023/05/28 01:34:29;;;;;;;6.40;4.10;;;20.80;98.60;;;;;;5114125;28;20178;-85
2023/05/28 01:37:01;;;;;;;4.67;3.87;;;20.70;98.50;;;;;;5095931;28;20440;-86
2023/05/28 01:39:30;;;;;;;8.10;4.00;;;20.70;98.40;;;;;;5095824;28;20641;-86
2023/05/28 01:41:57;;;;;;;5.70;4.43;;;20.60;98.50;;;;;;5095801;28;20420;-85
2023/05/28 01:44:23;;;;;;;6.23;4.23;;;20.60;98.50;;;;;;5095792;28;20946;-85
2023/05/28 01:46:52;;;;;;;9.20;4.60;;;20.50;98.60;;;;;;5095600;28;20850;-86
2023/05/28 01:49:19;;;;;;;6.73;4.77;;;20.40;98.50;;;;;;5095693;28;20412;-86
2023/05/28 01:51:45;;;;;;;8.43;4.17;;;20.40;98.60;;;;;;5114528;28;20931;-84
2023/05/28 01:54:11;;;;;;;7.93;5.00;;;20.30;98.60;;;;;;5099717;28;20428;-85
2023/05/28 01:56:36;;;;;;;7.53;4.40;;;20.20;98.70;;;;;;5099665;28;20206;-86
2023/05/28 01:59:03;;;;;;;10.05;4.80;;;20.20;98.80;;;;;;5118018;28;20926;-86
2023/05/28 02:01:29;;;;;;;;;;;20.10;98.80;;;;;;5100154;28;19914;-84
2023/05/28 02:03:55;;;;;;;;;;;20.10;98.80;;;;;;5118355;28;19908;-86
2023/05/28 02:06:21;;;;;;;;;;;20.10;99.00;;;;;;5118445;28;20272;-86
2023/05/28 02:08:47;;;;;;;;;;;20.00;98.80;;;;;;5118224;28;19915;-85
2023/05/28 02:11:12;;;;;;;;;;;20.00;98.90;;;;;;5134041;27;19908;-86
2023/05/28 02:13:39;;;;;;;;;;;19.90;98.90;;;;;;5118092;28;19953;-84
2023/05/28 02:16:05;;;;;;;;;;;19.80;98.90;;;;;;5133627;27;19990;-84
2023/05/28 02:18:31;;;;;;;;;;;19.80;99.10;;;;;;5099687;28;19935;-84
2023/05/28 02:20:57;;;;;;;;;;;19.70;99.20;;;;;;5118009;28;20333;-86
2023/05/28 02:23:23;;;;;;;9.80;5.03;;;19.70;99.20;;;;;;5117647;28;20357;-84
2023/05/28 02:25:48;;;;;;;4.87;4.00;;;19.70;99.40;;;;;;5117333;28;20198;-86
2023/05/28 02:28:14;;;;;;;6.60;4.27;;;19.70;99.70;;;;;;5117337;28;20219;-86
2023/05/28 02:30:40;;;;;;;8.37;4.20;;;19.70;99.50;;;;;;5098831;28;20293;-86
2023/05/28 02:33:05;;;;;;;;;;;19.70;99.60;;;;;;5099484;28;20736;-85
2023/05/28 02:35:31;;;;;;;;;;;19.70;99.70;;;;;;5117597;28;19943;-84
2023/05/28 02:37:56;;;;;;;;;;;19.70;99.80;;;;;;5099357;28;19919;-86
2023/05/28 02:40:22;;;;;;;;;;;19.70;99.80;;;;;;5133631;27;20273;-85
2023/05/28 02:42:48;;;;;;;;;;;19.70;99.80;;;;;;5133769;27;20352;-84
2023/05/28 02:45:13;;;;;;;;;;;19.80;99.50;;;;;;5099245;28;19908;-84
2023/05/28 02:47:39;;;;;;;;;;;19.70;99.40;;;;;;5117954;28;19923;-84
2023/05/28 02:50:05;;;;;;;;;;;19.70;99.50;;;;;;5117486;28;19908;-86
2023/05/28 02:52:30;;;;;;;;;;;19.60;99.40;;;;;;5099313;28;19915;-86
2023/05/28 02:54:56;;;;;;;;;;;19.50;99.50;;;;;;5133241;27;19994;-84
2023/05/28 02:57:21;;;;;;;;;;;19.50;99.60;;;;;;5133443;27;20238;-86
2023/05/28 02:59:47;;;;;;;;;;;19.40;99.60;;;;;;5133416;27;19953;-85
2023/05/28 03:02:13;;;;;;;;;;;19.30;99.70;;;;;;5117579;28;19914;-84
2023/05/28 03:04:38;;;;;;;;;;;19.20;99.80;;;;;;5132083;27;19908;-84
2023/05/28 03:07:04;;;;;;;;;;;19.10;99.90;;;;;;5117076;28;20009;-84
2023/05/28 03:09:29;;;;;;;;;;;19.00;99.90;;;;;;5117149;28;20007;-86
2023/05/28 03:11:55;;;;;;;;;;;18.90;99.90;;;;;;5117298;28;19908;-84
2023/05/28 03:14:20;;;;;;;;;;;18.90;99.90;;;;;;5132723;27;19908;-86
2023/05/28 03:16:46;;;;;;;;;;;18.80;99.90;;;;;;5116611;28;19923;-86
2023/05/28 03:19:11;;;;;;;;;;;18.70;99.90;;;;;;5116912;28;20044;-86
2023/05/28 03:21:38;;;;;;;;;;;18.70;99.90;;;;;;5116687;28;20272;-84
2023/05/28 03:24:04;;;;;;;;;;;18.60;99.90;;;;;;5116734;28;20329;-86
2023/05/28 03:26:29;;;;;;;;;;;18.60;99.90;;;;;;5116695;28;19915;-86
2023/05/28 03:28:55;;;;;;;;;;;18.60;99.90;;;;;;5132465;27;19915;-85
2023/05/28 03:31:20;;;;;;;7.50;4.40;;;18.50;99.90;;;;;;5116366;28;19907;-84
2023/05/28 03:33:46;;;;;;;7.77;5.60;;;18.50;99.90;;;;;;5116113;28;20184;-85
2023/05/28 03:36:12;;;;;;;6.63;4.57;;;18.50;99.90;;;;;;5116152;28;20212;-84
2023/05/28 03:38:37;;;;;;;6.43;4.50;;;18.40;99.90;;;;;;5116038;28;20175;-86
2023/05/28 03:41:03;;;;;;;8.27;4.63;;;18.40;99.90;;;;;;5097609;28;20672;-86
2023/05/28 03:43:30;;;;;;;7.10;4.77;;;18.30;99.90;;;;;;5097939;28;20204;-85
2023/05/28 03:45:56;;;;;;;9.03;4.57;;;18.30;99.90;;;;;;5115898;28;20188;-84
2023/05/28 03:48:21;;;;;;;8.03;4.27;;;18.30;99.90;;;;;;5097562;28;20472;-84
2023/05/28 03:50:47;;;;;;;6.67;4.50;;;18.30;99.90;;;;;;5115688;28;20699;-85
2023/05/28 03:53:12;;;;;;;6.90;5.00;;;18.30;99.90;;;;;;5115793;28;20176;-84
2023/05/28 03:55:38;;;;;;;6.90;4.73;;;18.30;99.90;;;;;;5097346;28;20279;-86
2023/05/28 03:58:04;;;;;;;6.57;3.90;;;18.30;99.90;;;;;;5097546;28;20177;-85
2023/05/28 04:00:30;;;;;;;8.40;4.30;;;18.40;99.90;;;;;;5115545;28;20279;-84
2023/05/28 04:02:55;;;;;;;5.50;3.60;;;18.40;99.90;;;;;;5097635;28;20263;-88
2023/05/28 04:05:21;;;;;;;7.73;4.27;;;18.50;99.90;;;;;;5097325;28;20199;-86
2023/05/28 04:07:48;;;;;;;9.80;4.80;;;18.50;99.90;;;;;;5097525;28;20487;-84
2023/05/28 04:10:14;;;;;;;8.07;4.60;;;18.60;99.90;;;;;;5097130;28;20635;-84
2023/05/28 04:12:40;;;;;;;7.97;4.27;;;18.60;99.90;;;;;;5115388;28;20457;-86
2023/05/28 04:15:07;;;;;;;9.03;5.20;;;18.60;99.90;;;;;;5115143;28;20704;-84
2023/05/28 04:17:32;;;;;;;7.53;4.50;;;18.60;99.90;;;;;;5093524;28;20890;-86
2023/05/28 04:19:58;;;;;;;4.70;3.80;;;18.60;99.90;;;;;;5094821;28;20456;-86
2023/05/28 04:22:24;;;;;;;6.80;4.73;;;18.60;99.90;;;;;;5093629;28;20264;-84
2023/05/28 04:24:54;;;;;;;7.47;4.20;;;18.60;99.90;;;;;;5093540;28;20198;-84
2023/05/28 04:27:19;;;;;;;7.80;4.30;;;18.70;99.90;;;;;;5094665;28;20264;-86
2023/05/28 04:29:46;;;;;;;9.90;4.80;;;18.80;99.90;;;;;;5093440;28;20418;-85
2023/05/28 04:32:11;;;;;;;7.20;4.87;;;18.80;99.90;;;;;;5093464;28;20184;-85
2023/05/28 04:34:40;;;;;;;9.40;4.30;;;18.80;99.90;;;;;;5094495;28;20824;-84
2023/05/28 04:37:07;;;;;;;5.77;4.43;;;18.90;99.90;;;;;;5093354;28;20699;-86
2023/05/28 04:39:33;;;;;;;15.40;4.90;;;18.90;99.90;;;;;;5094450;28;20431;-84
2023/05/28 04:41:59;;;;;;;6.93;4.47;;;18.80;99.90;;;;;;5093339;28;20418;-85
2023/05/28 04:44:26;;;;;;;9.83;4.97;;;18.80;99.90;;;;;;5094547;28;20486;-85
2023/05/28 04:46:52;;;;;;;8.90;4.80;;;18.80;99.90;;;;;;5093014;28;20461;-84
2023/05/28 04:49:18;;;;;;;6.73;4.80;;;18.80;99.90;;;;;;5093144;28;20422;-85
2023/05/28 04:51:43;;;;;;;5.23;3.93;;;18.80;99.90;;;;;;5094548;28;20552;-85
2023/05/28 04:54:09;;;;;;;9.10;4.33;;;18.70;99.90;;;;;;5094272;28;20208;-85
2023/05/28 04:56:36;;;;;;;5.57;4.27;;;18.70;99.90;;;;;;5092944;28;20233;-86
2023/05/28 04:59:04;;;;;;;8.63;4.47;;;18.70;99.90;;;;;;5094058;28;20174;-86
2023/05/28 05:01:32;;;;;;;7.10;4.80;;;18.70;99.90;;;;;;5094147;28;20438;-84
2023/05/28 05:03:58;;;;;;;6.23;4.43;;;18.70;99.90;;;;;;5094139;28;20462;-85
2023/05/28 05:06:23;;;;;;;8.17;4.80;;;18.80;99.90;;;;;;5094156;28;20443;-84
2023/05/28 05:08:49;;;;;;;5.30;4.00;;;18.80;99.90;;;;;;5094047;28;20226;-85
2023/05/28 05:11:15;;;;;;;7.70;4.93;;;18.80;99.90;;;;;;5093978;28;20190;-85
2023/05/28 05:13:41;;;;;;;7.90;4.40;;;18.90;99.90;;;;;;5092742;28;20418;-84
2023/05/28 05:16:06;;;;;;;6.27;4.00;;;19.00;99.90;;;;;;5094982;28;20458;-84
2023/05/28 05:18:32;;;;;;;7.97;4.47;;;19.00;99.90;;;;;;5096316;28;20188;-84
2023/05/28 05:20:58;;;;;;;8.07;4.57;;;19.10;99.90;;;;;;5096136;28;20277;-84
2023/05/28 05:23:23;;;;;;;9.47;5.20;;;19.10;99.90;;;;;;5114307;28;20174;-83
2023/05/28 05:25:49;;;;;;;11.27;4.60;;;19.20;99.90;;;;;;5095784;28;20668;-85
2023/05/28 05:28:15;;;;;;;7.40;3.97;;;19.20;99.90;;;;;;5095531;28;20220;-84
2023/05/28 05:30:41;;;;;;;9.30;4.20;;;19.30;99.90;;;;;;5095804;28;20199;-84
2023/05/28 05:33:07;;;;;;;7.90;5.53;;;19.30;99.90;;;;;;5095803;28;20448;-84
2023/05/28 05:35:33;;;;;;;8.33;3.97;;;19.40;99.90;;;;;;5113878;28;20422;-83
2023/05/28 05:37:59;;;;;;;7.63;4.27;;;19.40;99.90;;;;;;5095386;28;20188;-85
2023/05/28 05:40:25;;;;;;;6.37;4.10;;;19.40;99.90;;;;;;5095341;28;20194;-83
2023/05/28 05:42:51;;;;;;;10.93;4.50;;;19.50;99.90;;;;;;5096007;28;20183;-83
2023/05/28 05:45:16;;;;;;;8.10;4.93;;;19.60;99.90;;;;;;5113989;28;20939;-86
2023/05/28 05:47:42;;;;;;;8.43;5.30;;;19.60;99.90;;;;;;5095717;28;20270;-84
2023/05/28 05:50:12;;;;;;;7.00;5.17;;;19.80;99.90;;;;;;5095532;28;20725;-83
2023/05/28 05:52:38;;;;;;;7.00;5.17;;;19.80;99.90;;;;;;5097541;28;20193;-84
2023/05/28 05:55:05;;;;;;;6.37;5.17;;;19.80;99.90;;;;;;5113735;28;20447;-83
2023/05/28 05:57:32;;;;;;;6.07;3.80;;;19.90;99.90;;;;;;5113919;28;20415;-83
2023/05/28 05:59:57;;;;;;;4.57;4.00;;;20.00;99.90;;;;;;5114271;28;20450;-83
2023/05/28 06:02:23;;;;;;;7.53;4.60;;;20.10;99.90;;;;;;5129361;28;20427;-83
2023/05/28 06:04:49;;;;;;;7.13;4.27;;;20.10;99.90;;;;;;5113616;28;20209;-85
2023/05/28 06:07:15;;;;;;;5.17;4.37;;;20.30;99.90;;;;;;5105259;28;20260;-85
2023/05/28 06:09:40;;;;;;;6.60;4.47;;;20.50;99.90;;;;;;5134053;27;20239;-85
2023/05/28 06:12:06;;;;;;;13.90;5.63;;;20.60;99.90;;;;;;5135372;28;20460;-85
2023/05/28 06:14:32;;;;;;;13.23;5.40;;;20.70;99.90;;;;;;5135003;27;20168;-83
2023/05/28 06:16:58;;;;;;;8.23;5.17;;;20.80;99.90;;;;;;5116072;28;20227;-81
2023/05/28 06:19:23;;;;;;;7.90;4.73;;;20.90;99.90;;;;;;5130922;28;20821;-84
2023/05/28 06:21:50;;;;;;;7.70;4.77;;;21.00;99.90;;;;;;5130331;28;20197;-84
2023/05/28 06:24:15;;;;;;;10.00;5.40;;;21.00;99.90;;;;;;5115382;28;20176;-84
2023/05/28 06:26:41;;;;;;;8.23;5.10;;;21.20;99.90;;;;;;5107082;28;20558;-86
2023/05/28 06:29:09;;;;;;;8.37;4.83;;;21.30;99.90;;;;;;5113400;28;20199;-84
2023/05/28 06:31:35;;;;;;;6.80;4.40;;;21.30;99.90;;;;;;5117219;28;20581;-85
2023/05/28 06:34:02;;;;;;;7.53;6.00;;;21.50;99.90;;;;;;5105118;28;20507;-85
2023/05/28 06:36:28;;;;;;;12.30;5.30;;;21.50;99.90;;;;;;5095775;28;20200;-85
2023/05/28 06:38:53;;;;;;;8.47;5.80;;;21.60;99.90;;;;;;5114037;28;20533;-84
2023/05/28 06:41:19;;;;;;;10.97;5.40;;;21.60;99.90;;;;;;5098844;28;20432;-87
2023/05/28 06:43:46;;;;;;;10.20;4.50;;;21.80;99.90;;;;;;5098991;28;20592;-85
2023/05/28 06:46:12;;;;;;;6.57;4.80;;;21.80;99.90;;;;;;5098840;28;20212;-86
2023/05/28 06:48:37;;;;;;;7.20;5.00;;;21.90;99.90;;;;;;5097357;28;20558;-85
2023/05/28 06:51:03;;;;;;;6.60;5.10;;;21.90;99.90;;;;;;5114678;28;20451;-86
2023/05/28 06:53:29;;;;;;;7.37;4.60;;;21.90;99.90;;;;;;5114648;28;20175;-83
2023/05/28 06:55:55;;;;;;;7.60;5.53;;;21.90;99.90;;;;;;5100935;27;20679;-85
2023/05/28 06:58:21;;;;;;;8.70;5.30;;;21.90;99.90;;;;;;5136905;27;20186;-83
2023/05/28 07:00:46;;;;;;;7.37;4.97;;;21.90;99.90;;;;;;5118608;27;20459;-85
2023/05/28 07:03:12;;;;;;;9.07;5.13;;;21.80;99.90;;;;;;5118960;27;20608;-86
2023/05/28 07:05:37;;;;;;;12.30;5.90;;;21.70;99.90;;;;;;5105726;28;20561;-86
2023/05/28 07:08:03;;;;;;;5.60;5.10;;;21.80;99.90;;;;;;5116275;28;20246;-85
2023/05/28 07:10:29;;;;;;;14.93;5.80;;;21.80;99.90;;;;;;5116338;28;20606;-87
2023/05/28 07:12:55;;;;;;;7.00;5.30;;;21.70;99.90;;;;;;5116848;28;20168;-87
2023/05/28 07:15:21;;;;;;;7.83;5.40;;;21.70;99.90;;;;;;5124944;27;20431;-85
2023/05/28 07:17:47;;;;;;;7.50;4.67;;;21.80;99.90;;;;;;5136641;27;20261;-84
2023/05/28 07:20:13;;;;;;;5.93;4.57;;;21.80;99.90;;;;;;5118470;27;20423;-86
2023/05/28 07:22:39;;;;;;;8.10;5.00;;;21.80;99.90;;;;;;5118749;27;20195;-85
2023/05/28 07:25:06;;;;;;;8.77;5.13;;;21.80;99.90;;;;;;5118689;27;20807;-84
2023/05/28 07:27:31;;;;;;;10.03;5.80;;;22.00;99.90;;;;;;5116329;28;20458;-87
2023/05/28 07:29:59;;;;;;;9.13;6.03;;;22.00;99.90;;;;;;5097646;28;20432;-84
2023/05/28 07:32:25;;;;;;;9.23;5.20;;;22.00;99.90;;;;;;5097511;28;20524;-85
2023/05/28 07:34:51;;;;;;;5.90;5.30;;;22.00;99.90;;;;;;5131081;27;20452;-84
2023/05/28 07:37:16;;;;;;;7.40;5.00;;;22.00;99.90;;;;;;5116145;28;20160;-84
2023/05/28 07:39:42;;;;;;;9.33;4.93;;;22.10;99.90;;;;;;5101918;27;20484;-85
2023/05/28 07:42:08;;;;;;;10.00;5.20;;;22.10;99.90;;;;;;5136766;27;20178;-85
2023/05/28 07:44:33;;;;;;;6.83;4.83;;;22.00;99.90;;;;;;5117988;27;20206;-86
2023/05/28 07:46:59;;;;;;;7.60;5.37;;;22.10;99.90;;;;;;5117979;27;20711;-86
2023/05/28 07:49:25;;;;;;;6.50;5.20;;;22.10;99.90;;;;;;5116350;27;20214;-84
2023/05/28 07:51:51;;;;;;;7.53;5.30;;;22.20;99.90;;;;;;5096668;28;20447;-84
2023/05/28 07:54:17;;;;;;;7.57;5.87;;;22.30;99.90;;;;;;5129565;27;20194;-84
2023/05/28 07:56:43;;;;;;;11.93;5.03;;;22.30;99.90;;;;;;5116109;27;20826;-86
2023/05/28 07:59:08;;;;;;;9.77;5.30;;;22.30;99.90;;;;;;5096177;28;20184;-85
2023/05/28 08:01:34;;;;;;;8.10;5.43;;;22.40;99.90;;;;;;5112912;28;20195;-86
2023/05/28 08:04:00;;;;;;;5.23;4.73;;;22.40;99.90;;;;;;5112158;28;20472;-86
2023/05/28 08:06:26;;;;;;;7.80;6.00;;;22.40;99.90;;;;;;5112032;28;20203;-85
2023/05/28 08:08:52;;;;;;;7.97;5.40;;;22.40;99.90;;;;;;5094857;28;20207;-82
2023/05/28 08:11:17;;;;;;;8.13;5.67;;;22.50;99.90;;;;;;5096038;28;20447;-84
2023/05/28 08:13:43;;;;;;;7.57;6.03;;;22.60;99.90;;;;;;5095511;28;20176;-84
2023/05/28 08:16:12;;;;;;;6.23;4.67;;;22.70;99.90;;;;;;5093646;28;20242;-85
2023/05/28 08:18:39;;;;;;;10.70;5.90;;;22.80;99.90;;;;;;5113153;27;20570;-83
2023/05/28 08:21:06;;;;;;;6.43;5.67;;;22.90;99.90;;;;;;5111719;28;20428;-83
2023/05/28 08:23:34;;;;;;;6.63;4.80;;;23.00;99.90;;;;;;5112901;28;20420;-84
2023/05/28 08:26:03;;;;;;;6.83;5.13;;;23.10;99.90;;;;;;5093075;28;20452;-85
2023/05/28 08:28:32;;;;;;;7.57;5.50;;;23.20;99.90;;;;;;5110840;27;21022;-83
2023/05/28 08:30:58;;;;;;;6.83;5.90;;;23.20;99.90;;;;;;5092686;28;20451;-84
2023/05/28 08:33:24;;;;;;;7.07;5.20;;;23.30;99.90;;;;;;5110884;28;20406;-83
2023/05/28 08:35:50;;;;;;;8.33;5.63;;;23.40;99.90;;;;;;5110285;28;20673;-83
2023/05/28 08:38:15;;;;;;;7.80;5.07;;;23.40;99.90;;;;;;5111900;27;20420;-83
2023/05/28 08:40:48;;;;;;;7.50;5.67;;;23.50;99.90;;;;;;5112431;28;20925;-83
2023/05/28 08:43:14;;;;;;;8.73;5.57;;;23.50;99.90;;;;;;5113083;28;20160;-83
2023/05/28 08:45:40;;;;;;;6.30;5.30;;;23.50;99.90;;;;;;5114344;28;20465;-85
2023/05/28 08:48:06;;;;;;;10.73;5.57;;;23.60;99.90;;;;;;5120833;27;20463;-82
2023/05/28 08:50:38;;;;;;;7.03;5.60;;;23.60;99.90;;;;;;5115556;27;20235;-83
2023/05/28 08:53:07;;;;;;;10.13;4.90;;;23.70;99.90;;;;;;5134790;27;20449;-84
2023/05/28 08:55:34;;;;;;;10.27;5.70;;;23.70;99.90;;;;;;5116005;27;20783;-82
2023/05/28 08:58:00;;;;;;;7.60;5.53;;;23.80;99.90;;;;;;5098229;28;20454;-81
2023/05/28 09:00:25;;;;;;;6.70;5.70;;;23.80;99.90;;;;;;5113975;28;20426;-83
2023/05/28 09:02:51;;;;;;;9.13;5.80;;;23.80;99.90;;;;;;5095289;28;20180;-81
2023/05/28 09:05:17;;;;;;;6.37;5.13;;;23.80;99.90;;;;;;5095556;28;20193;-86
2023/05/28 09:07:44;;;;;;;9.50;6.40;;;23.80;99.90;;;;;;5108716;27;20459;-85
2023/05/28 09:10:11;;;;;;;6.93;5.67;;;23.80;99.90;;;;;;5133430;27;20494;-85
2023/05/28 09:12:40;;;;;;;8.37;6.30;;;23.90;99.90;;;;;;5116424;27;20468;-84
2023/05/28 09:15:06;;;;;;;10.23;6.27;;;23.90;99.90;;;;;;5131867;27;21096;-80
2023/05/28 09:17:33;;;;;;;9.00;6.47;;;23.90;99.90;;;;;;5129702;27;20465;-80
2023/05/28 09:20:04;;;;;;;6.77;4.97;;;23.90;99.90;;;;;;5112772;28;20792;-84
2023/05/28 09:22:31;;;;;;;9.20;6.20;;;24.00;99.90;;;;;;5113302;28;20497;-84
2023/05/28 09:24:59;;;;;;;6.87;5.20;;;24.00;99.90;;;;;;5113070;28;20780;-85
2023/05/28 09:27:25;;;;;;;10.00;7.00;;;24.00;99.90;;;;;;5093490;28;20556;-85
2023/05/28 09:29:52;;;;;;;11.70;5.90;;;24.00;99.90;;;;;;5091388;28;20432;-84
2023/05/28 09:32:22;;;;;;;10.63;6.10;;;24.10;99.90;;;;;;5091508;28;20423;-85
2023/05/28 09:34:50;;;;;;;8.87;6.27;;;24.10;99.90;;;;;;5109537;27;20462;-84
2023/05/28 09:37:17;;;;;;;12.43;5.77;;;24.00;99.90;;;;;;5113789;28;20421;-87
2023/05/28 09:39:43;;;;;;;9.03;5.90;;;24.10;99.90;;;;;;5106354;28;20478;-83
2023/05/28 09:42:10;;;;;;;6.40;5.30;;;23.80;99.90;;;;;;5111742;28;20499;-85
2023/05/28 09:44:38;;;;;;;8.33;5.53;;;23.50;99.90;;;;;;5112523;28;20417;-83
2023/05/28 09:47:14;;;;;;;7.83;5.97;;;23.30;99.90;;;;;;5113822;28;20448;-85
2023/05/28 09:49:43;;;;;;;12.90;5.77;;;23.20;99.90;;;;;;5128464;28;20841;-85
2023/05/28 09:52:11;;;;;;;10.70;6.50;;;23.30;99.90;;;;;;5096441;28;20428;-85
2023/05/28 09:54:38;;;;;;;8.80;6.00;;;23.50;99.90;;;;;;5123101;27;20417;-85
2023/05/28 09:57:09;;;;;;;6.70;5.87;;;23.60;99.90;;;;;;5115630;28;20472;-87
2023/05/28 09:59:38;;;;;;;10.27;6.60;;;23.60;99.90;;;;;;5115112;27;20421;-86
2023/05/28 10:02:34;;;;;;;6.53;5.43;;;23.50;99.90;;;;;;5133746;28;20431;-83
2023/05/28 10:05:05;;;;;;;8.73;6.00;;;23.50;99.90;;;;;;5115224;28;20531;-84
2023/05/28 10:07:31;;;;;;;10.87;6.43;;;23.60;99.90;;;;;;5115439;28;20459;-86
2023/05/28 10:09:59;;;;;;;10.27;7.60;;;23.70;99.90;;;;;;5116496;28;20436;-86
2023/05/28 10:12:28;;;;;;;9.93;5.60;;;23.80;99.90;;;;;;5109389;28;20449;-85
2023/05/28 10:14:54;;;;;;;7.57;6.70;;;23.80;99.90;;;;;;5132332;27;20467;-83
2023/05/28 10:17:21;;;;;;;9.43;5.73;;;23.60;99.90;;;;;;5116895;28;20961;-83
2023/05/28 10:19:47;;;;;;;10.80;6.67;;;23.40;99.90;;;;;;5098375;28;20422;-82
2023/05/28 10:22:15;;;;;;;10.70;5.80;;;23.40;99.90;;;;;;5098117;28;20416;-82
2023/05/28 10:24:42;;;;;;;8.13;5.70;;;23.60;99.90;;;;;;5115734;28;20808;-82
2023/05/28 10:27:12;;;;;;;7.03;6.17;;;23.70;99.90;;;;;;5097426;28;20436;-86
2023/05/28 10:29:42;;;;;;;13.77;7.37;;;23.90;99.90;;;;;;5116760;28;20890;-82
2023/05/28 10:32:09;;;;;;;8.40;6.03;;;24.10;99.90;;;;;;5117178;28;20484;-86
2023/05/28 10:34:36;;;;;;;8.03;5.57;;;24.20;99.90;;;;;;5098561;28;20422;-82
2023/05/28 10:37:08;;;;;;;9.63;6.20;;;24.20;99.90;;;;;;5117114;28;20494;-83
2023/05/28 10:39:47;;;;;;;11.93;5.67;;;24.30;99.90;;;;;;5116644;28;20403;-86
2023/05/28 10:42:20;;;;;;;6.70;5.63;;;24.50;99.90;;;;;;5098085;28;20447;-86
2023/05/28 10:45:08;;;;;;;9.30;5.90;;;24.60;99.90;;;;;;5116563;28;20407;-83
2023/05/28 10:47:39;;;;;;;89.00;62.87;;;24.60;99.90;;;;;;5098063;28;20478;-85
2023/05/28 10:50:15;;;;;;;1110.97;638.27;;;24.60;99.90;;;;;;5098181;28;20443;-81
2023/05/28 10:52:42;;;;;;;26.73;17.03;;;24.70;99.90;;;;;;5097825;28;21069;-81
2023/05/28 10:55:12;;;;;;;11.77;10.00;;;24.60;99.90;;;;;;5116147;28;20505;-82
2023/05/28 10:57:46;;;;;;;10.23;6.20;;;24.60;99.90;;;;;;5097589;28;20803;-82
2023/05/28 11:00:22;;;;;;;10.27;6.00;;;24.50;99.90;;;;;;5097340;28;20947;-83
2023/05/28 11:02:51;;;;;;;8.43;6.20;;;24.40;99.90;;;;;;5114889;28;20414;-81
2023/05/28 11:05:23;;;;;;;9.80;6.17;;;24.30;99.90;;;;;;5097545;28;20438;-82
2023/05/28 11:07:49;;;;;;;9.40;6.97;;;24.30;99.90;;;;;;5096443;28;20474;-83
2023/05/28 11:10:16;;;;;;;7.73;7.00;;;24.30;99.90;;;;;;5113406;28;20521;-86
2023/05/28 11:12:43;;;;;;;1999.90;999.90;;;24.40;99.90;;;;;;5097064;28;20483;-85
2023/05/28 11:15:13;;;;;;;19.93;12.87;;;24.50;99.90;;;;;;5097023;28;20456;-86
2023/05/28 11:17:46;;;;;;;1999.90;919.93;;;24.50;99.90;;;;;;5095956;28;20510;-83
2023/05/28 11:20:20;;;;;;;470.63;226.00;;;24.40;99.90;;;;;;5087512;28;20481;-82
2023/05/28 11:22:46;;;;;;;1419.27;642.07;;;24.40;99.90;;;;;;5110865;28;20431;-82
2023/05/28 11:25:12;;;;;;;16.40;8.00;;;24.20;99.90;;;;;;5108701;28;20431;-82
2023/05/28 11:27:40;;;;;;;211.13;100.70;;;24.20;99.90;;;;;;5090314;28;20470;-82
2023/05/28 11:30:13;;;;;;;128.77;58.13;;;24.20;99.90;;;;;;5108279;28;20969;-83
2023/05/28 11:32:40;;;;;;;131.53;63.57;;;24.30;99.90;;;;;;5090001;28;20438;-82
2023/05/28 11:35:09;;;;;;;10.57;6.20;;;24.40;99.90;;;;;;5092106;28;20447;-83
2023/05/28 11:37:36;;;;;;;295.97;147.37;;;24.50;99.90;;;;;;5095084;28;20927;-85
2023/05/28 11:40:05;;;;;;;8.30;7.17;;;24.50;99.90;;;;;;5095470;28;20489;-85
2023/05/28 11:42:33;;;;;;;12.87;6.80;;;24.60;99.90;;;;;;5113464;28;20571;-83
2023/05/28 11:44:58;;;;;;;9.20;5.40;;;24.60;99.90;;;;;;5091959;28;20499;-84
2023/05/28 11:47:26;;;;;;;10.30;6.50;;;24.60;99.90;;;;;;5092665;28;20831;-86
2023/05/28 11:49:53;;;;;;;7.67;6.60;;;24.70;99.90;;;;;;5091232;28;20248;-87
2023/05/28 11:52:25;;;;;;;14.13;7.20;;;24.70;99.90;;;;;;5090575;28;20960;-86
2023/05/28 11:54:57;;;;;;;9.30;6.40;;;24.80;99.90;;;;;;5110129;28;20963;-86
2023/05/28 11:57:33;;;;;;;12.37;7.23;;;24.90;99.90;;;;;;5092820;28;20515;-83
2023/05/28 12:00:15;;;;;;;13.47;7.37;;;24.90;99.90;;;;;;5086370;28;20482;-81
2023/05/28 12:02:49;;;;;;;12.97;6.40;;;24.90;99.90;;;;;;5088279;28;21121;-84
2023/05/28 12:05:17;;;;;;;12.63;6.97;;;25.00;99.90;;;;;;5089048;28;20976;-80
2023/05/28 12:07:46;;;;;;;13.07;7.80;;;25.00;99.90;;;;;;5089216;28;20560;-88
2023/05/28 12:10:22;;;;;;;15.10;8.57;;;25.10;99.90;;;;;;5106798;28;20435;-85
2023/05/28 12:12:53;;;;;;;15.73;7.80;;;25.20;99.90;;;;;;5106515;28;20524;-83
2023/05/28 12:15:28;;;;;;;18.47;8.20;;;25.20;99.90;;;;;;5089263;28;20508;-82
2023/05/28 12:17:58;;;;;;;8.93;7.80;;;25.30;99.90;;;;;;5087198;28;20556;-88
2023/05/28 12:20:24;;;;;;;10.17;7.60;;;25.30;99.90;;;;;;5124566;27;20462;-86
2023/05/28 12:23:04;;;;;;;11.80;8.60;;;25.30;99.90;;;;;;5086758;28;21170;-81
2023/05/28 12:25:51;;;;;;;22.13;16.77;;;25.40;99.90;;;;;;5080678;28;20215;-82
2023/05/28 12:28:19;;;;;;;21.70;13.40;;;25.50;99.90;;;;;;5101295;28;20456;-84
2023/05/28 12:30:50;;;;;;;18.30;11.40;;;25.50;99.90;;;;;;5104300;28;20428;-83
2023/05/28 12:33:16;;;;;;;11.67;8.40;;;25.50;99.90;;;;;;5086470;28;20405;-81
2023/05/28 12:35:42;;;;;;;9.53;7.33;;;25.60;99.90;;;;;;5090433;28;20512;-82
2023/05/28 12:38:09;;;;;;;18.77;9.00;;;25.70;99.90;;;;;;5066738;28;20992;-81
2023/05/28 12:40:35;;;;;;;26.53;10.03;;;25.70;99.90;;;;;;5072306;28;20234;-83
2023/05/28 12:43:02;;;;;;;12.90;8.17;;;25.80;99.90;;;;;;5106573;28;20477;-84
2023/05/28 12:45:31;;;;;;;10.70;8.20;;;25.90;99.90;;;;;;5107121;28;20431;-83
2023/05/28 12:47:57;;;;;;;10.37;7.30;;;25.90;99.90;;;;;;5087106;28;20464;-82
2023/05/28 12:50:25;;;;;;;9.47;7.37;;;25.90;99.90;;;;;;5108744;28;20466;-82
2023/05/28 12:52:52;;;;;;;12.43;7.03;;;25.90;99.90;;;;;;5113101;28;20188;-83